createdAt,value
2022-08-03T00:02:24.235Z,21.40
2022-08-03T00:07:26.960Z,21.30
2022-08-03T00:12:30.042Z,21.20
2022-08-03T00:17:53.613Z,21.10
2022-08-03T00:22:55.786Z,21.00
2022-08-03T00:27:59.256Z,20.90
2022-08-03T00:33:02.890Z,20.90
2022-08-03T00:38:05.970Z,20.90
2022-08-03T00:43:09.164Z,20.70
2022-08-03T00:48:29.700Z,20.70
2022-08-03T00:53:37.349Z,20.60
2022-08-03T00:58:41.552Z,20.60
2022-08-03T01:03:44.343Z,20.60
2022-08-03T01:09:27.879Z,20.60
2022-08-03T01:14:52.324Z,20.40
2022-08-03T01:20:07.487Z,20.40
2022-08-03T01:25:54.330Z,20.40
2022-08-03T01:31:03.923Z,20.40
2022-08-03T01:36:14.674Z,20.40
2022-08-03T01:41:31.966Z,20.40
2022-08-03T01:46:38.504Z,20.30
2022-08-03T01:51:58.544Z,20.30
2022-08-03T01:57:08.186Z,20.30
2022-08-03T02:02:28.642Z,20.30
2022-08-03T02:07:37.891Z,20.20
2022-08-03T02:12:44.675Z,20.20
2022-08-03T02:17:50.411Z,20.10
2022-08-03T02:22:53.374Z,20.00
2022-08-03T02:28:02.440Z,20.00
2022-08-03T02:33:11.427Z,20.00
2022-08-03T02:38:18.579Z,20.00
2022-08-03T02:43:24.286Z,20.00
2022-08-03T02:48:31.763Z,20.00
2022-08-03T02:53:36.277Z,20.00
2022-08-03T02:58:42.999Z,20.00
2022-08-03T03:03:46.895Z,20.00
2022-08-03T03:08:52.518Z,20.00
2022-08-03T03:13:58.683Z,20.00
2022-08-03T03:19:03.153Z,20.00
2022-08-03T03:24:07.829Z,20.00
2022-08-03T03:29:10.892Z,20.10
2022-08-03T03:34:14.015Z,20.20
2022-08-03T03:39:17.075Z,20.20
2022-08-03T03:44:20.315Z,20.20
2022-08-03T03:49:23.600Z,20.20
2022-08-03T03:54:29.304Z,20.30
2022-08-03T03:59:32.310Z,20.30
2022-08-03T04:04:57.606Z,20.30
2022-08-03T04:10:21.062Z,20.30
2022-08-03T04:15:27.013Z,20.30
2022-08-03T04:20:33.098Z,20.30
2022-08-03T04:25:38.620Z,20.40
2022-08-03T04:30:47.870Z,20.40
2022-08-03T04:36:02.382Z,20.50
2022-08-03T04:41:08.128Z,20.70
2022-08-03T04:46:12.261Z,20.80
2022-08-03T04:51:15.819Z,20.90
2022-08-03T04:56:18.721Z,21.00
2022-08-03T05:01:22.690Z,21.00
2022-08-03T05:06:26.287Z,21.10
2022-08-03T05:11:29.220Z,21.20
2022-08-03T05:16:33.095Z,21.40
2022-08-03T05:21:41.608Z,21.50
2022-08-03T05:26:55.606Z,21.70
2022-08-03T05:31:58.498Z,21.80
2022-08-03T05:37:01.353Z,22.10
2022-08-03T05:42:04.556Z,22.20
2022-08-03T05:47:07.631Z,22.40
2022-08-03T05:52:12.843Z,22.60
2022-08-03T05:57:17.409Z,22.70
2022-08-03T06:02:20.258Z,22.90
2022-08-03T06:07:24.395Z,23.10
2022-08-03T06:12:27.299Z,23.40
2022-08-03T06:17:37.329Z,23.60
2022-08-03T06:22:50.881Z,23.90
2022-08-03T06:28:03.883Z,24.10
2022-08-03T06:33:08.321Z,24.30
2022-08-03T06:38:11.255Z,24.60
2022-08-03T06:43:16.109Z,24.80
2022-08-03T06:48:18.901Z,25.00
2022-08-03T06:53:21.799Z,25.20
2022-08-03T06:58:24.661Z,25.50
2022-08-03T07:03:27.639Z,25.70
2022-08-03T07:08:33.614Z,26.00
2022-08-03T07:13:37.712Z,26.20
2022-08-03T07:18:40.739Z,26.40
2022-08-03T07:23:43.819Z,26.60
2022-08-03T07:28:46.653Z,26.70
2022-08-03T07:33:49.565Z,26.70
2022-08-03T07:38:52.532Z,26.60
2022-08-03T07:43:55.485Z,26.50
2022-08-03T07:48:58.382Z,26.50
2022-08-03T07:54:01.756Z,26.60
2022-08-03T07:59:04.653Z,26.80
2022-08-03T08:04:07.622Z,27.10
2022-08-03T08:09:11.694Z,27.30
2022-08-03T08:14:14.561Z,27.60
2022-08-03T08:19:17.589Z,27.70
2022-08-03T08:24:21.790Z,28.00
2022-08-03T08:29:25.435Z,28.20
2022-08-03T08:34:28.400Z,28.40
2022-08-03T08:39:34.879Z,28.60
2022-08-03T08:44:38.310Z,28.80
2022-08-03T08:49:53.399Z,28.90
2022-08-03T08:55:08.700Z,29.10
2022-08-03T09:00:15.309Z,29.30
2022-08-03T09:05:31.472Z,29.40
2022-08-03T09:10:43.885Z,29.50
2022-08-03T09:15:57.196Z,29.60
2022-08-03T09:21:35.523Z,29.70
2022-08-03T09:26:38.713Z,29.80
2022-08-03T09:31:46.036Z,29.80
2022-08-03T09:36:53.998Z,29.80
2022-08-03T09:42:18.282Z,30.00
2022-08-03T09:47:33.930Z,30.10
2022-08-03T09:52:52.378Z,29.90
2022-08-03T09:58:10.433Z,30.00
2022-08-03T10:03:13.540Z,30.10
2022-08-03T10:08:19.186Z,30.40
2022-08-03T10:13:23.449Z,30.60
2022-08-03T10:18:26.316Z,30.70
2022-08-03T10:23:34.167Z,30.80
2022-08-03T10:28:45.335Z,30.90
2022-08-03T10:33:53.069Z,31.10
2022-08-03T10:38:57.206Z,31.30
2022-08-03T10:44:10.799Z,31.50
2022-08-03T10:49:16.247Z,31.70
2022-08-03T10:55:03.463Z,31.90
2022-08-03T11:00:11.857Z,32.00
2022-08-03T11:05:29.809Z,32.30
2022-08-03T11:10:32.828Z,32.50
2022-08-03T11:15:36.580Z,32.70
2022-08-03T11:20:47.578Z,32.70
2022-08-03T11:26:15.527Z,32.80
2022-08-03T11:31:48.604Z,33.00
2022-08-03T11:37:28.708Z,33.20
2022-08-03T11:42:36.563Z,33.20
2022-08-03T11:47:50.280Z,33.20
2022-08-03T11:52:54.964Z,33.20
2022-08-03T11:59:18.813Z,33.40
2022-08-03T12:03:23.898Z,33.50
2022-08-03T12:08:27.957Z,33.80
2022-08-03T12:14:49.545Z,33.90
2022-08-03T12:19:20.045Z,34.00
2022-08-03T12:24:22.920Z,34.40
2022-08-03T12:29:26.423Z,34.10
2022-08-03T12:34:49.209Z,33.70
2022-08-03T12:40:00.638Z,33.90
2022-08-03T12:45:32.992Z,34.30
2022-08-03T12:50:38.697Z,34.90
2022-08-03T12:56:04.635Z,35.50
2022-08-03T13:01:10.279Z,35.90
2022-08-03T13:06:15.636Z,36.00
2022-08-03T13:11:22.836Z,35.80
2022-08-03T13:16:46.190Z,35.50
2022-08-03T13:22:02.122Z,35.30
2022-08-03T13:28:02.211Z,35.10
2022-08-03T13:32:30.647Z,34.80
2022-08-03T13:37:34.073Z,34.60
2022-08-03T13:42:38.882Z,34.30
2022-08-03T13:47:42.087Z,33.90
2022-08-03T13:52:46.375Z,33.40
2022-08-03T13:58:04.488Z,33.00
2022-08-03T14:03:14.133Z,32.70
2022-08-03T14:08:17.438Z,32.60
2022-08-03T14:13:20.249Z,32.80
2022-08-03T14:18:27.710Z,33.30
2022-08-03T14:23:40.072Z,33.70
2022-08-03T14:28:42.862Z,34.10
2022-08-03T14:33:45.649Z,34.40
2022-08-03T14:38:48.453Z,34.80
2022-08-03T14:44:01.051Z,35.10
2022-08-03T14:50:37.749Z,35.20
2022-08-03T14:54:31.045Z,35.20
2022-08-03T14:59:55.798Z,35.10
2022-08-03T15:04:56.987Z,35.20
2022-08-03T15:10:00.001Z,35.30
2022-08-03T15:15:06.135Z,35.10
2022-08-03T15:20:22.557Z,34.80
2022-08-03T15:26:28.120Z,34.80
2022-08-03T15:30:52.593Z,35.00
2022-08-03T15:35:56.664Z,35.00
2022-08-03T15:41:00.249Z,35.10
2022-08-03T15:46:28.384Z,35.00
2022-08-03T15:51:26.325Z,35.00
2022-08-03T15:56:29.132Z,34.80
2022-08-03T16:01:32.109Z,34.20
2022-08-03T16:06:36.277Z,33.50
2022-08-03T16:11:39.330Z,32.90
2022-08-03T16:16:42.435Z,32.50
2022-08-03T16:21:47.402Z,32.10
2022-08-03T16:26:51.836Z,31.80
2022-08-03T16:31:54.638Z,31.50
2022-08-03T16:36:57.627Z,31.10
2022-08-03T16:42:01.868Z,30.90
2022-08-03T16:47:04.962Z,30.70
2022-08-03T16:52:07.855Z,30.60
2022-08-03T16:57:10.737Z,30.40
2022-08-03T17:02:26.293Z,30.30
2022-08-03T17:07:30.397Z,30.20
2022-08-03T17:12:33.307Z,30.10
2022-08-03T17:17:53.406Z,30.00
2022-08-03T17:23:02.989Z,30.00
2022-08-03T17:28:49.758Z,29.90
2022-08-03T17:33:35.611Z,29.90
2022-08-03T17:38:41.287Z,29.70
2022-08-03T17:44:15.465Z,29.60
2022-08-03T17:49:25.000Z,29.40
2022-08-03T17:54:49.283Z,29.20
2022-08-03T18:00:33.711Z,29.00
2022-08-03T18:06:11.682Z,28.90
2022-08-03T18:11:14.862Z,28.70
2022-08-03T18:17:01.586Z,28.60
2022-08-03T18:22:04.582Z,28.40
2022-08-03T18:27:10.698Z,28.20
2022-08-03T18:32:17.020Z,28.10
2022-08-03T18:37:26.148Z,28.00
2022-08-03T18:42:29.118Z,27.90
2022-08-03T18:47:59.764Z,27.70
2022-08-03T18:53:21.834Z,27.50
2022-08-03T18:59:02.752Z,27.20
2022-08-03T19:04:31.363Z,27.00
2022-08-03T19:09:55.875Z,26.80
2022-08-03T19:20:31.890Z,26.70
2022-08-03T19:25:40.429Z,26.60
2022-08-03T19:30:53.635Z,26.60
2022-08-03T19:35:57.522Z,26.50
2022-08-03T19:41:05.732Z,26.30
2022-08-03T19:46:14.089Z,26.30
2022-08-03T19:51:17.528Z,26.10
2022-08-03T19:56:30.571Z,25.80
2022-08-03T20:01:50.226Z,25.60
2022-08-03T20:06:57.309Z,25.40
2022-08-03T20:12:00.795Z,25.20
2022-08-03T20:17:03.677Z,25.00
2022-08-03T20:22:14.498Z,25.00
2022-08-03T20:27:20.583Z,25.00
2022-08-03T20:32:24.591Z,24.90
2022-08-03T20:37:27.742Z,24.80
2022-08-03T20:42:33.981Z,24.70
2022-08-03T20:47:39.125Z,24.60
2022-08-03T20:52:54.826Z,24.40
2022-08-03T20:57:59.499Z,24.20
2022-08-03T21:03:04.229Z,24.20
2022-08-03T21:08:10.775Z,24.00
2022-08-03T21:13:01.802Z,26.70
2022-08-03T21:13:24.401Z,24.00
2022-08-03T21:18:30.902Z,24.00
2022-08-03T21:23:47.878Z,23.80
2022-08-03T21:28:55.942Z,23.70
2022-08-03T21:34:03.519Z,23.60
2022-08-03T21:39:09.344Z,23.60
2022-08-03T21:44:12.537Z,23.50
2022-08-03T21:50:05.167Z,23.40
2022-08-03T21:54:43.573Z,23.30
2022-08-03T21:59:57.797Z,23.30
2022-08-03T22:05:04.958Z,23.20
2022-08-03T22:10:10.159Z,23.10
2022-08-03T22:15:14.530Z,22.90
2022-08-03T22:20:19.347Z,22.80
2022-08-03T22:25:29.213Z,22.80
2022-08-03T22:30:33.325Z,22.80
2022-08-03T22:35:47.540Z,22.80
2022-08-03T22:40:52.465Z,22.70
2022-08-03T22:46:09.742Z,22.70
2022-08-03T22:51:16.894Z,22.70
2022-08-03T22:56:20.038Z,22.70
2022-08-03T23:01:25.647Z,22.70
2022-08-03T23:06:36.033Z,22.70
2022-08-03T23:11:45.554Z,22.60
2022-08-03T23:16:54.186Z,22.50
2022-08-03T23:22:03.580Z,22.40
2022-08-03T23:27:09.461Z,22.40
2022-08-03T23:32:14.307Z,22.20
2022-08-03T23:37:19.747Z,22.10
2022-08-03T23:42:24.046Z,22.10
2022-08-03T23:47:46.436Z,22.00
2022-08-03T23:52:58.470Z,21.90
2022-08-03T23:58:32.260Z,21.90
